Time;durP1;ratioP1;P1;durP2;ratioP2;P2;SDS_P1;SDS_P2;PMS_P1;PMS_P2;Temp;Humidity;BMP_temperature;BMP_pressure;BME280_temperature;BME280_humidity;BME280_pressure;Samples;Min_cycle;Max_cycle;Signal;HPM_P1;HPM_P2
2022/01/29 00:00:08;;;;;;;25.27;15.13;;;0.60;99.90;;;;;;5001146;28;20224;-66
2022/01/29 00:02:39;;;;;;;21.85;13.07;;;0.50;99.90;;;;;;5000800;28;20051;-66
2022/01/29 00:05:06;;;;;;;26.45;15.80;;;0.50;99.90;;;;;;5002525;28;20684;-66
2022/01/29 00:07:33;;;;;;;29.90;16.77;;;0.50;99.90;;;;;;5001068;28;20048;-66
2022/01/29 00:10:04;;;;;;;34.72;17.45;;;0.40;99.90;;;;;;5000401;28;20051;-66
2022/01/29 00:12:31;;;;;;;32.88;17.75;;;0.40;99.90;;;;;;5000814;28;20049;-66
2022/01/29 00:14:59;;;;;;;31.65;17.50;;;0.40;99.90;;;;;;4999006;28;20351;-66
2022/01/29 00:17:26;;;;;;;32.53;18.42;;;0.30;99.90;;;;;;5001103;28;20041;-66
2022/01/29 00:19:53;;;;;;;37.65;19.40;;;0.20;99.90;;;;;;5002757;28;20296;-66
2022/01/29 00:22:20;;;;;;;42.03;21.35;;;0.20;99.90;;;;;;5005535;28;20305;-66
2022/01/29 00:24:48;;;;;;;36.08;18.95;;;0.10;99.90;;;;;;5002447;28;20562;-66
2022/01/29 00:27:15;;;;;;;36.38;19.20;;;0.10;99.90;;;;;;5006832;28;20052;-66
2022/01/29 00:29:43;;;;;;;34.03;18.38;;;0.10;99.90;;;;;;5002314;28;20403;-66
2022/01/29 00:32:12;;;;;;;28.33;17.13;;;0.10;99.90;;;;;;5005210;28;20337;-66
2022/01/29 00:34:40;;;;;;;30.85;17.33;;;0.10;99.90;;;;;;5002810;28;20284;-66
2022/01/29 00:37:07;;;;;;;35.78;20.35;;;0.10;99.90;;;;;;5005346;28;20064;-66
2022/01/29 00:39:35;;;;;;;32.95;17.40;;;0.10;99.90;;;;;;4997449;28;20528;-66
2022/01/29 00:42:03;;;;;;;34.83;19.45;;;0.10;99.90;;;;;;4982512;28;20049;-66
2022/01/29 00:44:46;;;;;;;31.20;16.85;;;0.20;99.90;;;;;;4985399;28;20241;-66
2022/01/29 00:47:14;;;;;;;29.88;16.85;;;0.20;99.90;;;;;;4983786;28;20163;-66
2022/01/29 00:49:42;;;;;;;35.10;18.27;;;0.20;99.90;;;;;;4984389;28;20306;-66
2022/01/29 00:52:10;;;;;;;31.48;17.55;;;0.20;99.90;;;;;;4971506;28;20392;-66
2022/01/29 00:54:37;;;;;;;35.75;16.17;;;0.20;99.90;;;;;;5003380;28;20162;-66
2022/01/29 00:57:04;;;;;;;33.20;17.92;;;0.20;99.90;;;;;;5004653;28;20138;-66
2022/01/29 00:59:33;;;;;;;35.63;17.83;;;0.30;99.90;;;;;;5004082;28;20297;-66
2022/01/29 01:02:03;;;;;;;27.10;16.02;;;0.30;99.90;;;;;;5004589;28;20335;-66
2022/01/29 01:04:30;;;;;;;27.67;14.93;;;0.30;99.90;;;;;;5005440;28;20717;-66
2022/01/29 01:06:57;;;;;;;29.98;15.45;;;0.30;99.90;;;;;;5006532;28;20671;-66
2022/01/29 01:09:24;;;;;;;24.50;14.70;;;0.30;99.90;;;;;;5000933;28;20111;-66
2022/01/29 01:11:51;;;;;;;27.40;14.93;;;0.30;99.90;;;;;;5004383;28;20494;-66
2022/01/29 01:14:18;;;;;;;24.63;14.80;;;0.30;99.90;;;;;;5002704;28;20367;-66
2022/01/29 01:16:45;;;;;;;27.02;14.15;;;0.30;99.90;;;;;;5002426;28;20074;-66
2022/01/29 01:19:12;;;;;;;26.33;15.95;;;0.30;99.90;;;;;;5003715;28;20059;-66
2022/01/29 01:21:39;;;;;;;26.63;15.82;;;0.20;99.90;;;;;;5004454;28;20687;-66
2022/01/29 01:24:06;;;;;;;29.65;15.75;;;0.20;99.90;;;;;;5002202;28;20362;-67
2022/01/29 01:26:33;;;;;;;29.77;16.13;;;0.20;99.90;;;;;;5004051;28;20048;-66
2022/01/29 01:29:00;;;;;;;28.00;15.85;;;0.20;99.90;;;;;;5004817;28;20048;-66
2022/01/29 01:31:27;;;;;;;27.50;17.77;;;0.20;99.90;;;;;;5003630;28;20383;-66
2022/01/29 01:33:54;;;;;;;23.27;13.95;;;0.10;99.90;;;;;;5004284;28;20341;-66
2022/01/29 01:36:24;;;;;;;28.55;15.05;;;0.20;99.90;;;;;;5001969;28;20051;-66
2022/01/29 01:38:59;;;;;;;26.95;14.73;;;0.20;99.90;;;;;;5002427;28;20224;-67
2022/01/29 01:41:28;;;;;;;24.25;13.77;;;0.20;99.90;;;;;;4982613;28;20803;-67
2022/01/29 01:44:02;;;;;;;24.92;14.38;;;0.10;99.90;;;;;;4981589;28;20498;-66
2022/01/29 01:46:29;;;;;;;26.23;14.18;;;0.20;99.90;;;;;;4984112;28;20555;-66
2022/01/29 01:48:57;;;;;;;22.92;13.95;;;0.20;99.90;;;;;;4981227;28;20212;-66
2022/01/29 01:51:25;;;;;;;24.73;13.88;;;0.20;99.90;;;;;;4982298;28;20045;-66
2022/01/29 01:53:52;;;;;;;28.15;14.68;;;0.20;99.90;;;;;;4978313;28;20502;-68
2022/01/29 01:56:19;;;;;;;24.90;14.15;;;0.20;99.90;;;;;;4984690;28;20138;-66
2022/01/29 01:58:47;;;;;;;27.58;14.52;;;0.20;99.90;;;;;;4986053;28;20048;-66
2022/01/29 02:01:14;;;;;;;20.80;13.75;;;0.10;99.90;;;;;;4982936;28;20140;-66
2022/01/29 02:03:42;;;;;;;28.95;14.05;;;0.20;99.90;;;;;;4985435;28;20051;-66
2022/01/29 02:06:09;;;;;;;24.42;13.55;;;0.20;99.90;;;;;;4985642;28;20136;-66
2022/01/29 02:08:36;;;;;;;24.30;13.23;;;0.20;99.90;;;;;;4984121;28;20214;-66
2022/01/29 02:11:07;;;;;;;29.95;12.73;;;0.20;99.90;;;;;;4982703;28;20529;-66
2022/01/29 02:13:34;;;;;;;21.58;11.48;;;0.20;99.90;;;;;;4983748;28;20498;-66
2022/01/29 02:16:02;;;;;;;17.13;10.43;;;0.20;99.90;;;;;;4984043;28;20427;-66
2022/01/29 02:18:29;;;;;;;23.45;12.50;;;0.30;99.90;;;;;;4982192;28;20052;-67
2022/01/29 02:20:58;;;;;;;21.23;11.15;;;0.20;99.90;;;;;;4997265;28;20660;-66
2022/01/29 02:23:25;;;;;;;18.65;10.75;;;0.30;99.90;;;;;;4984011;28;20578;-66
2022/01/29 02:25:54;;;;;;;16.92;10.25;;;0.20;99.90;;;;;;4983557;28;20356;-66
2022/01/29 02:28:24;;;;;;;19.40;10.25;;;0.30;99.90;;;;;;5000661;28;20271;-66
2022/01/29 02:31:01;;;;;;;17.73;9.85;;;0.30;99.90;;;;;;4984540;28;20377;-66
2022/01/29 02:33:31;;;;;;;17.10;9.90;;;0.30;99.90;;;;;;4997486;28;20656;-66
2022/01/29 02:35:59;;;;;;;19.58;9.93;;;0.30;99.90;;;;;;4983487;28;20329;-66
2022/01/29 02:38:27;;;;;;;15.23;9.13;;;0.30;99.90;;;;;;4984612;28;20525;-66
2022/01/29 02:40:59;;;;;;;15.18;8.85;;;0.30;99.90;;;;;;4982616;28;20146;-66
2022/01/29 02:43:31;;;;;;;15.02;9.13;;;0.30;99.90;;;;;;4982203;28;20237;-66
2022/01/29 02:46:19;;;;;;;16.27;7.93;;;0.40;99.90;;;;;;4988694;28;20448;-66
2022/01/29 02:48:49;;;;;;;13.75;8.38;;;0.40;99.90;;;;;;5010559;28;20432;-66
2022/01/29 02:51:17;;;;;;;15.00;8.50;;;0.40;99.90;;;;;;5020221;28;20304;-66
2022/01/29 02:53:44;;;;;;;13.35;8.32;;;0.40;99.90;;;;;;4988392;28;20261;-66
2022/01/29 02:56:11;;;;;;;13.70;8.20;;;0.40;99.90;;;;;;5004275;28;20568;-66
2022/01/29 02:58:38;;;;;;;15.65;9.10;;;0.40;99.90;;;;;;5004044;28;20570;-66
2022/01/29 03:01:07;;;;;;;17.85;8.18;;;0.40;99.90;;;;;;4999078;28;20056;-66
2022/01/29 03:03:34;;;;;;;12.25;7.47;;;0.50;99.90;;;;;;4984241;28;20156;-66
2022/01/29 03:06:03;;;;;;;14.45;7.35;;;0.40;99.90;;;;;;5002924;28;20057;-66
2022/01/29 03:08:30;;;;;;;13.15;6.45;;;0.50;99.90;;;;;;5003673;28;20037;-66
2022/01/29 03:10:57;;;;;;;9.90;6.22;;;0.50;99.90;;;;;;5001040;28;20032;-66
2022/01/29 03:13:24;;;;;;;10.70;6.15;;;0.50;99.90;;;;;;5001506;28;20169;-66
2022/01/29 03:15:51;;;;;;;13.65;6.90;;;0.50;99.90;;;;;;5004205;28;20044;-66
2022/01/29 03:18:18;;;;;;;10.15;5.78;;;0.50;99.90;;;;;;5002046;28;20203;-66
2022/01/29 03:20:45;;;;;;;8.45;5.63;;;0.50;99.90;;;;;;5003225;28;20600;-66
2022/01/29 03:23:13;;;;;;;8.65;5.22;;;0.50;99.90;;;;;;5000108;28;20098;-66
2022/01/29 03:25:40;;;;;;;9.73;6.00;;;0.50;99.90;;;;;;5002519;28;20521;-66
2022/01/29 03:28:07;;;;;;;8.80;4.65;;;0.50;99.90;;;;;;5001777;28;20052;-66
2022/01/29 03:30:34;;;;;;;9.55;5.60;;;0.50;99.90;;;;;;5003619;28;20351;-66
2022/01/29 03:33:01;;;;;;;10.90;5.65;;;0.50;99.90;;;;;;5001872;28;20670;-66
2022/01/29 03:35:28;;;;;;;9.40;6.05;;;0.50;99.90;;;;;;5003205;28;20285;-66
2022/01/29 03:37:55;;;;;;;9.48;5.28;;;0.50;99.90;;;;;;5004094;28;20289;-66
2022/01/29 03:40:22;;;;;;;8.07;5.18;;;0.50;99.90;;;;;;4999301;28;20463;-66
2022/01/29 03:43:03;;;;;;;7.50;4.72;;;0.50;99.90;;;;;;4995213;28;20742;-66
2022/01/29 03:45:30;;;;;;;7.97;4.00;;;0.50;99.90;;;;;;4981863;28;20225;-66
2022/01/29 03:47:57;;;;;;;9.63;4.55;;;0.50;99.90;;;;;;4979891;28;20045;-64
2022/01/29 03:50:24;;;;;;;8.73;4.40;;;0.50;99.90;;;;;;4979395;28;20080;-66
2022/01/29 03:52:51;;;;;;;5.75;3.75;;;0.50;99.90;;;;;;4989282;28;20443;-66
2022/01/29 03:55:18;;;;;;;6.75;4.47;;;0.50;99.90;;;;;;5000339;28;20064;-66
2022/01/29 03:57:45;;;;;;;8.45;4.72;;;0.50;99.90;;;;;;5003295;28;20359;-66
2022/01/29 04:00:13;;;;;;;6.63;4.13;;;0.50;99.90;;;;;;4999793;28;20051;-66
2022/01/29 04:02:40;;;;;;;9.63;4.60;;;0.50;99.90;;;;;;4981757;28;20649;-66
2022/01/29 04:05:08;;;;;;;10.05;4.25;;;0.50;99.90;;;;;;5001617;28;20497;-66
2022/01/29 04:07:35;;;;;;;7.88;4.22;;;0.50;99.90;;;;;;4999416;28;20793;-66
2022/01/29 04:10:02;;;;;;;7.47;4.72;;;0.50;99.90;;;;;;5003441;28;20314;-66
2022/01/29 04:12:35;;;;;;;7.78;4.70;;;0.50;99.90;;;;;;4985784;28;20377;-65
2022/01/29 04:15:02;;;;;;;5.50;4.63;;;0.50;99.90;;;;;;5002281;28;21129;-66
2022/01/29 04:17:29;;;;;;;5.85;4.32;;;0.50;99.90;;;;;;5000149;28;20506;-66
2022/01/29 04:19:56;;;;;;;10.05;5.80;;;0.50;99.90;;;;;;4998625;28;20286;-66
2022/01/29 04:22:23;;;;;;;10.02;5.47;;;0.60;99.90;;;;;;5003974;28;20373;-66
2022/01/29 04:24:50;;;;;;;10.60;5.13;;;0.60;99.90;;;;;;5001292;28;20740;-66
2022/01/29 04:27:20;;;;;;;7.53;5.13;;;0.60;99.90;;;;;;5002959;28;20193;-66
2022/01/29 04:29:55;;;;;;;8.48;5.00;;;0.60;99.90;;;;;;5003146;28;20810;-66
2022/01/29 04:32:32;;;;;;;10.60;5.03;;;0.60;99.90;;;;;;5003635;28;20335;-66
2022/01/29 04:35:00;;;;;;;8.07;4.85;;;0.60;99.90;;;;;;5002990;28;20358;-65
2022/01/29 04:37:27;;;;;;;11.40;5.63;;;0.60;99.90;;;;;;5001496;28;20075;-66
2022/01/29 04:39:54;;;;;;;11.15;5.15;;;0.60;99.90;;;;;;5002038;28;20375;-65
2022/01/29 04:42:21;;;;;;;11.75;5.07;;;0.60;99.90;;;;;;4998867;28;20041;-66
2022/01/29 04:44:48;;;;;;;7.45;4.57;;;0.60;99.90;;;;;;4978865;28;20158;-66
2022/01/29 04:47:15;;;;;;;7.80;4.95;;;0.60;99.90;;;;;;4983142;28;20048;-66
2022/01/29 04:49:42;;;;;;;7.75;3.78;;;0.60;99.90;;;;;;4982062;28;20239;-67
2022/01/29 04:52:09;;;;;;;6.35;4.43;;;0.60;99.90;;;;;;4983712;28;20344;-66
2022/01/29 04:54:36;;;;;;;7.93;3.85;;;0.70;99.90;;;;;;5000709;28;20460;-66
2022/01/29 04:57:03;;;;;;;7.10;4.20;;;0.70;99.90;;;;;;4999362;28;20205;-66
2022/01/29 04:59:30;;;;;;;7.15;3.80;;;0.70;99.90;;;;;;4998440;28;20225;-66
2022/01/29 05:01:57;;;;;;;7.97;3.67;;;0.70;99.90;;;;;;5001792;28;20280;-65
2022/01/29 05:04:24;;;;;;;9.00;3.28;;;0.70;99.90;;;;;;5004720;28;20052;-66
2022/01/29 05:06:51;;;;;;;7.43;3.75;;;0.70;99.90;;;;;;5005685;28;20233;-66
2022/01/29 05:09:17;;;;;;;;;;;0.70;99.90;;;;;;5006449;28;20737;-66
2022/01/29 05:11:48;;;;;;;6.25;3.33;;;0.70;99.90;;;;;;5004469;28;19924;-66
2022/01/29 05:14:26;;;;;;;4.93;3.60;;;0.70;99.90;;;;;;5006031;28;20544;-66
2022/01/29 05:27:36;;;;;;;8.68;3.67;;;0.80;99.90;;;;;;5006415;28;20044;-66
2022/01/29 05:30:04;;;;;;;5.38;3.60;;;0.80;99.90;;;;;;5003745;28;20212;-66
2022/01/29 05:32:31;;;;;;;6.50;3.15;;;0.80;99.90;;;;;;5005690;28;20075;-66
2022/01/29 05:34:58;;;;;;;3.53;2.60;;;0.70;99.90;;;;;;5004170;28;20217;-66
2022/01/29 05:37:38;;;;;;;5.70;3.10;;;0.70;99.90;;;;;;5004922;28;20061;-66
2022/01/29 05:40:06;;;;;;;6.53;2.83;;;0.70;99.90;;;;;;5003549;28;20036;-66
2022/01/29 05:42:32;;;;;;;4.70;2.85;;;0.70;99.90;;;;;;5003654;28;20045;-66
2022/01/29 05:44:59;;;;;;;3.92;2.85;;;0.70;99.90;;;;;;4997599;28;20045;-66
2022/01/29 05:47:26;;;;;;;5.30;2.63;;;0.70;99.90;;;;;;4984268;28;20391;-66
2022/01/29 05:49:53;;;;;;;4.28;2.78;;;0.70;99.90;;;;;;4983705;28;20329;-66
2022/01/29 05:52:20;;;;;;;6.30;2.95;;;0.70;99.90;;;;;;4988184;28;20523;-66
2022/01/29 05:54:48;;;;;;;5.57;3.08;;;0.70;99.90;;;;;;5001564;28;20370;-67
2022/01/29 05:57:16;;;;;;;4.50;3.13;;;0.70;99.90;;;;;;5005402;28;20293;-66
2022/01/29 05:59:43;;;;;;;3.80;2.53;;;0.80;99.90;;;;;;5002122;28;20430;-66
2022/01/29 06:02:11;;;;;;;3.45;2.47;;;0.80;99.90;;;;;;5005665;28;20055;-66
2022/01/29 06:04:39;;;;;;;4.47;2.45;;;0.80;99.90;;;;;;4985147;28;20048;-66
2022/01/29 06:07:06;;;;;;;4.65;2.65;;;0.80;99.90;;;;;;5004678;28;20349;-66
2022/01/29 06:09:32;;;;;;;4.45;2.72;;;0.80;99.90;;;;;;5005107;28;20558;-66
2022/01/29 06:11:59;;;;;;;4.00;2.03;;;0.80;99.90;;;;;;5004785;28;20581;-66
2022/01/29 06:14:26;;;;;;;3.85;2.70;;;0.80;99.90;;;;;;5005409;28;20048;-66
2022/01/29 06:16:53;;;;;;;5.68;2.20;;;0.90;99.90;;;;;;5002994;28;20328;-66
2022/01/29 06:19:20;;;;;;;5.40;2.88;;;0.80;99.90;;;;;;5002875;28;20543;-66
2022/01/29 06:21:47;;;;;;;4.55;2.33;;;0.80;99.90;;;;;;5005095;28;20068;-66
2022/01/29 06:24:14;;;;;;;4.15;2.88;;;0.90;99.90;;;;;;5005340;28;20497;-66
2022/01/29 06:26:41;;;;;;;4.45;2.70;;;0.90;99.90;;;;;;5004187;28;20495;-65
2022/01/29 06:29:08;;;;;;;5.55;3.08;;;0.90;99.90;;;;;;5000453;28;20178;-66
2022/01/29 06:31:35;;;;;;;6.10;3.15;;;1.00;99.90;;;;;;5005377;28;20045;-66
2022/01/29 06:34:03;;;;;;;4.55;2.95;;;1.00;99.90;;;;;;5004518;28;20163;-66
2022/01/29 06:36:30;;;;;;;6.07;2.53;;;1.00;99.90;;;;;;5003310;28;20384;-66
2022/01/29 06:38:57;;;;;;;7.07;2.97;;;1.00;99.90;;;;;;5003188;28;20205;-67
2022/01/29 06:41:24;;;;;;;5.05;3.17;;;1.10;99.90;;;;;;5000626;28;20543;-66
2022/01/29 06:43:51;;;;;;;11.65;3.70;;;1.10;99.90;;;;;;5001409;28;20472;-66
2022/01/29 06:46:18;;;;;;;8.02;4.10;;;1.10;99.90;;;;;;4984142;28;20190;-66
2022/01/29 06:48:45;;;;;;;10.50;3.65;;;1.20;99.90;;;;;;4981092;28;20785;-66
2022/01/29 06:51:12;;;;;;;9.75;3.78;;;1.20;99.90;;;;;;4980910;28;20386;-66
2022/01/29 06:53:40;;;;;;;8.07;3.78;;;1.30;99.90;;;;;;4979553;28;20768;-66
2022/01/29 06:56:07;;;;;;;6.45;3.35;;;1.30;99.90;;;;;;5003178;28;20553;-65
2022/01/29 06:58:35;;;;;;;5.93;3.20;;;1.40;99.90;;;;;;5005181;28;20309;-67
2022/01/29 07:01:22;;;;;;;;;;;1.40;99.90;;;;;;4987524;28;20163;-66
2022/01/29 07:03:50;;;;;;;4.25;2.47;;;1.40;99.90;;;;;;5004041;28;20393;-66
2022/01/29 07:06:17;;;;;;;8.25;3.03;;;1.40;99.90;;;;;;4987798;28;20550;-66
2022/01/29 07:08:44;;;;;;;6.82;3.25;;;1.40;99.90;;;;;;4984828;28;20070;-66
2022/01/29 07:11:12;;;;;;;6.30;3.05;;;1.50;99.90;;;;;;5002005;28;20388;-66
2022/01/29 07:13:39;;;;;;;9.55;5.00;;;1.50;99.90;;;;;;5000294;28;20691;-66
2022/01/29 07:16:06;;;;;;;12.63;6.35;;;1.50;99.90;;;;;;5005229;28;20288;-66
2022/01/29 07:18:34;;;;;;;6.85;3.67;;;1.60;99.90;;;;;;5003122;28;20407;-66
2022/01/29 07:21:01;;;;;;;6.20;3.20;;;1.60;99.90;;;;;;4984092;28;20044;-66
2022/01/29 07:23:33;;;;;;;4.13;2.67;;;1.60;99.90;;;;;;5000436;28;20044;-65
2022/01/29 07:26:00;;;;;;;5.68;3.25;;;1.70;99.90;;;;;;5000220;28;20361;-66
2022/01/29 07:28:27;;;;;;;4.80;3.00;;;1.70;99.90;;;;;;4985055;28;20909;-65
2022/01/29 07:30:55;;;;;;;4.57;2.50;;;1.80;99.90;;;;;;4999932;28;20829;-65
2022/01/29 07:33:22;;;;;;;3.97;3.15;;;1.80;99.90;;;;;;5002975;28;20077;-66
2022/01/29 07:35:49;;;;;;;4.88;3.40;;;1.80;99.90;;;;;;5004403;28;20256;-66
2022/01/29 07:38:16;;;;;;;5.80;3.10;;;1.80;99.90;;;;;;5001114;28;20661;-66
2022/01/29 07:40:44;;;;;;;6.32;3.20;;;1.90;99.90;;;;;;5000122;28;20463;-66
2022/01/29 07:43:11;;;;;;;6.18;3.17;;;1.90;99.90;;;;;;5000940;28;20592;-56
2022/01/29 07:45:39;;;;;;;5.03;2.88;;;1.90;99.90;;;;;;4997560;28;20553;-57
2022/01/29 07:48:07;;;;;;;3.63;2.65;;;2.00;99.90;;;;;;4981506;28;20268;-57
2022/01/29 07:50:34;;;;;;;3.42;2.47;;;2.00;99.90;;;;;;4982073;28;20041;-57
2022/01/29 07:53:01;;;;;;;2.50;2.15;;;2.10;99.90;;;;;;4991744;28;20596;-57
2022/01/29 07:55:31;;;;;;;5.05;1.92;;;2.20;99.90;;;;;;5000776;28;20309;-57
2022/01/29 07:58:01;;;;;;;2.90;1.80;;;2.20;99.90;;;;;;5000843;28;20396;-57
2022/01/29 08:00:34;;;;;;;4.97;2.28;;;2.30;99.90;;;;;;5000430;28;20291;-57
2022/01/29 08:03:03;;;;;;;2.40;1.67;;;2.30;99.90;;;;;;5002580;28;20040;-57
2022/01/29 08:05:33;;;;;;;4.15;2.30;;;2.40;99.90;;;;;;5000976;28;20498;-57
2022/01/29 08:08:00;;;;;;;3.22;2.00;;;2.40;99.90;;;;;;5002614;28;20037;-57
2022/01/29 08:10:27;;;;;;;4.47;1.90;;;2.40;99.90;;;;;;5000052;28;20204;-57
2022/01/29 08:12:54;;;;;;;1.92;1.58;;;2.50;99.90;;;;;;5000080;28;20328;-58
2022/01/29 08:15:21;;;;;;;11.10;2.10;;;2.50;99.90;;;;;;5002867;28;20147;-57
2022/01/29 08:17:48;;;;;;;6.82;2.13;;;2.50;99.90;;;;;;5003883;28;20216;-57
2022/01/29 08:20:15;;;;;;;4.15;2.00;;;2.60;99.90;;;;;;5003216;28;20418;-55
2022/01/29 08:22:42;;;;;;;8.40;1.85;;;2.60;99.90;;;;;;5002761;28;20036;-56
2022/01/29 08:25:10;;;;;;;6.38;2.10;;;2.60;99.90;;;;;;4988862;28;20052;-55
2022/01/29 08:27:37;;;;;;;3.35;2.10;;;2.60;99.90;;;;;;5000750;28;20552;-56
2022/01/29 08:30:05;;;;;;;4.70;2.35;;;2.60;99.90;;;;;;5000810;28;20619;-56
2022/01/29 08:32:32;;;;;;;9.00;2.67;;;2.70;99.90;;;;;;5001867;28;20212;-56
2022/01/29 08:35:00;;;;;;;3.55;1.40;;;2.70;99.90;;;;;;4999917;28;20429;-56
2022/01/29 08:37:27;;;;;;;3.88;2.03;;;2.80;99.90;;;;;;5001804;28;20305;-57
2022/01/29 08:39:54;;;;;;;3.17;2.20;;;2.80;99.90;;;;;;5002563;28;20135;-57
2022/01/29 08:42:21;;;;;;;1.77;1.48;;;2.90;99.90;;;;;;5006185;28;20617;-57
2022/01/29 08:44:48;;;;;;;2.92;1.50;;;2.90;99.90;;;;;;5003915;28;20478;-57
2022/01/29 08:47:15;;;;;;;2.15;1.40;;;3.00;99.90;;;;;;4995282;28;20232;-57
2022/01/29 08:49:42;;;;;;;6.22;1.17;;;3.10;99.90;;;;;;4982275;28;20516;-57
2022/01/29 08:52:09;;;;;;;4.22;1.50;;;3.20;99.90;;;;;;4985735;28;20522;-57
2022/01/29 08:54:36;;;;;;;9.07;2.65;;;3.30;99.90;;;;;;5002543;28;20254;-57
2022/01/29 08:57:03;;;;;;;4.28;1.13;;;3.30;99.90;;;;;;5004852;28;20188;-58
2022/01/29 08:59:30;;;;;;;2.08;1.30;;;3.30;99.90;;;;;;5002314;28;20368;-57
2022/01/29 09:01:57;;;;;;;1.95;1.20;;;3.40;99.90;;;;;;4986083;28;20048;-57
2022/01/29 09:04:25;;;;;;;6.45;1.33;;;3.40;99.90;;;;;;4983686;28;20269;-59
2022/01/29 09:06:52;;;;;;;1.95;1.23;;;3.50;99.90;;;;;;4982576;28;20091;-58
2022/01/29 09:09:26;;;;;;;1.48;1.23;;;3.60;99.90;;;;;;4984833;28;20056;-58
2022/01/29 09:12:01;;;;;;;2.53;1.70;;;3.60;99.90;;;;;;4984784;28;20345;-58
2022/01/29 09:14:28;;;;;;;2.08;1.52;;;3.60;99.70;;;;;;4983516;28;20215;-58
2022/01/29 09:16:55;;;;;;;2.83;1.92;;;3.70;99.60;;;;;;4984412;28;20440;-58
2022/01/29 09:19:22;;;;;;;2.60;1.52;;;3.80;99.90;;;;;;5002905;28;20982;-58
2022/01/29 09:21:49;;;;;;;2.90;1.75;;;3.80;99.60;;;;;;4986806;28;20579;-58
2022/01/29 09:24:16;;;;;;;2.30;1.83;;;3.90;99.20;;;;;;5003732;28;20106;-58
2022/01/29 09:26:44;;;;;;;3.55;1.75;;;4.00;99.60;;;;;;5005309;28;20303;-52
2022/01/29 09:29:11;;;;;;;2.50;1.40;;;4.00;99.90;;;;;;5000608;28;20163;-52
2022/01/29 09:31:38;;;;;;;2.63;1.58;;;4.10;99.90;;;;;;5003037;28;20307;-52
2022/01/29 09:34:05;;;;;;;3.25;1.90;;;4.10;99.90;;;;;;4987260;28;20384;-58
2022/01/29 09:36:32;;;;;;;5.43;2.70;;;4.10;99.90;;;;;;5005273;28;20337;-57
2022/01/29 09:38:59;;;;;;;4.43;2.38;;;4.20;99.90;;;;;;5001588;28;20053;-57
2022/01/29 09:41:28;;;;;;;4.75;2.28;;;4.30;99.90;;;;;;5002534;28;20047;-56
2022/01/29 09:43:56;;;;;;;4.18;2.20;;;4.40;99.90;;;;;;5004160;28;20044;-57
2022/01/29 09:46:30;;;;;;;5.20;2.75;;;4.50;99.90;;;;;;5001915;28;20412;-57
2022/01/29 09:48:59;;;;;;;3.10;2.22;;;4.60;99.90;;;;;;4997360;28;20328;-56
2022/01/29 09:51:27;;;;;;;5.32;2.58;;;4.60;99.90;;;;;;4970761;28;20566;-57
2022/01/29 09:53:54;;;;;;;3.53;1.90;;;4.60;99.90;;;;;;5001362;28;20580;-57
2022/01/29 09:56:21;;;;;;;5.55;1.98;;;4.60;99.90;;;;;;5006254;28;20451;-57
2022/01/29 09:58:48;;;;;;;3.90;1.55;;;4.60;99.90;;;;;;5002061;28;20235;-57
2022/01/29 10:01:16;;;;;;;2.88;1.90;;;4.60;99.90;;;;;;5000863;28;20243;-57
2022/01/29 10:03:59;;;;;;;5.82;2.58;;;4.60;99.90;;;;;;5002884;28;20224;-57
2022/01/29 10:06:26;;;;;;;15.63;3.42;;;4.70;98.40;;;;;;5000434;28;20083;-57
2022/01/29 10:08:53;;;;;;;2.92;2.03;;;4.70;97.00;;;;;;5003480;28;20558;-57
2022/01/29 10:11:25;;;;;;;4.68;2.33;;;4.80;96.90;;;;;;5002068;28;20376;-56
2022/01/29 10:14:00;;;;;;;7.13;2.58;;;4.80;95.00;;;;;;5004978;28;20141;-57
2022/01/29 10:16:30;;;;;;;2.75;1.90;;;4.90;92.80;;;;;;5001334;28;20087;-57
2022/01/29 10:19:07;;;;;;;2.88;1.90;;;4.90;93.00;;;;;;5001044;28;20426;-57
2022/01/29 10:21:37;;;;;;;3.60;2.10;;;5.00;93.90;;;;;;5000841;28;20040;-56
2022/01/29 10:24:21;;;;;;;3.15;2.28;;;5.10;94.40;;;;;;5002853;28;20672;-57
2022/01/29 10:26:51;;;;;;;3.05;1.70;;;5.20;94.90;;;;;;5003199;28;20360;-57
2022/01/29 10:29:26;;;;;;;4.05;2.25;;;5.30;95.20;;;;;;5000900;28;20728;-57
2022/01/29 10:31:57;;;;;;;4.75;2.58;;;5.40;92.90;;;;;;5003372;28;20378;-57
2022/01/29 10:34:27;;;;;;;3.97;2.80;;;5.60;89.20;;;;;;5003366;28;20095;-57
2022/01/29 10:37:14;;;;;;;8.85;3.22;;;5.80;85.80;;;;;;4984526;28;20519;-57
2022/01/29 10:39:44;;;;;;;7.97;2.80;;;6.10;81.90;;;;;;5000175;28;20522;-57
2022/01/29 10:42:18;;;;;;;2.83;2.35;;;6.40;78.00;;;;;;5001156;28;20317;-57
2022/01/29 10:44:48;;;;;;;3.53;2.22;;;6.50;76.30;;;;;;5000335;28;20193;-57
2022/01/29 10:47:15;;;;;;;3.92;2.22;;;6.70;75.60;;;;;;5003671;28;20189;-57
2022/01/29 10:50:05;;;;;;;5.88;2.85;;;6.80;72.80;;;;;;4995409;28;20276;-57
2022/01/29 10:52:35;;;;;;;6.97;3.13;;;6.90;69.80;;;;;;4985880;28;20560;-57
2022/01/29 10:55:07;;;;;;;3.70;2.30;;;7.00;67.30;;;;;;5000218;28;20164;-57
2022/01/29 10:57:40;;;;;;;4.43;2.88;;;7.20;68.40;;;;;;5001330;28;20056;-57
2022/01/29 11:00:24;;;;;;;4.00;2.22;;;7.50;70.20;;;;;;4998841;28;20620;-57
2022/01/29 11:02:53;;;;;;;4.28;2.50;;;7.60;68.70;;;;;;5001697;28;20041;-57
2022/01/29 11:05:31;;;;;;;4.85;2.88;;;7.80;67.10;;;;;;5000763;28;20040;-57
2022/01/29 11:08:01;;;;;;;;;;;8.00;67.70;;;;;;5000261;28;20232;-57
2022/01/29 11:10:29;;;;;;;6.82;3.00;;;8.00;64.30;;;;;;5002265;28;20679;-57
2022/01/29 11:12:57;;;;;;;4.95;3.05;;;8.00;64.20;;;;;;4984052;28;20326;-57
2022/01/29 11:15:25;;;;;;;4.25;2.88;;;8.10;64.50;;;;;;5004095;28;20342;-57
2022/01/29 11:17:53;;;;;;;6.68;2.95;;;8.20;63.00;;;;;;5003237;28;20213;-57
2022/01/29 11:20:20;;;;;;;8.23;4.15;;;8.40;62.50;;;;;;5000126;28;20407;-57
2022/01/29 11:22:50;;;;;;;5.25;2.70;;;8.50;59.10;;;;;;4999756;28;20051;-57
2022/01/29 11:25:22;;;;;;;5.55;3.05;;;8.70;59.90;;;;;;5003513;28;20313;-57
2022/01/29 11:28:16;;;;;;;7.10;3.40;;;9.10;57.50;;;;;;5003780;28;20721;-57
2022/01/29 11:30:45;;;;;;;6.50;3.03;;;9.50;56.80;;;;;;5002207;28;20331;-57
2022/01/29 11:33:13;;;;;;;3.78;3.17;;;9.90;56.60;;;;;;5002251;28;20043;-57
2022/01/29 11:35:52;;;;;;;6.15;2.90;;;10.30;56.70;;;;;;5002309;28;20896;-57
2022/01/29 11:38:33;;;;;;;5.68;3.20;;;10.90;56.80;;;;;;5000800;28;20167;-57
2022/01/29 11:41:03;;;;;;;5.15;2.22;;;11.30;51.50;;;;;;5000847;28;20446;-57
2022/01/29 11:43:34;;;;;;;3.03;2.17;;;11.60;49.80;;;;;;5000619;28;20355;-57
2022/01/29 11:46:15;;;;;;;3.15;2.45;;;11.90;51.30;;;;;;5001697;28;20300;-58
2022/01/29 11:48:52;;;;;;;3.65;2.67;;;12.10;48.30;;;;;;5003925;28;20285;-57
2022/01/29 11:51:41;;;;;;;4.40;2.17;;;12.40;47.40;;;;;;4995465;28;20314;-57
2022/01/29 11:54:12;;;;;;;4.47;1.80;;;12.60;45.30;;;;;;4998409;28;20679;-58
2022/01/29 11:56:41;;;;;;;2.13;1.85;;;12.60;45.70;;;;;;5000272;28;20186;-57
2022/01/29 11:59:23;;;;;;;5.15;2.70;;;12.70;47.10;;;;;;5001636;28;20312;-58
2022/01/29 12:01:59;;;;;;;6.18;3.00;;;12.90;47.50;;;;;;5000387;28;20217;-57
2022/01/29 12:04:48;;;;;;;3.75;2.47;;;13.20;45.80;;;;;;4999902;28;20270;-58
2022/01/29 12:09:48;;;;;;;4.72;2.33;;;13.40;41.50;;;;;;4999439;28;20052;-58
2022/01/29 12:12:21;;;;;;;1.98;1.60;;;13.20;42.70;;;;;;5000592;28;20133;-57
2022/01/29 12:14:51;;;;;;;3.00;1.73;;;12.90;43.90;;;;;;5003433;28;20147;-58
2022/01/29 12:17:59;;;;;;;2.70;1.60;;;12.70;44.70;;;;;;5003978;28;20288;-58
2022/01/29 12:20:27;;;;;;;2.67;1.73;;;12.50;45.00;;;;;;5002848;28;20197;-57
2022/01/29 12:23:01;;;;;;;1.48;1.38;;;12.20;43.40;;;;;;5003410;28;20439;-57
2022/01/29 12:25:29;;;;;;;2.53;1.73;;;12.10;43.90;;;;;;5004502;28;20482;-57
2022/01/29 12:28:02;;;;;;;2.45;1.67;;;12.10;43.70;;;;;;5003251;28;20044;-58
2022/01/29 12:30:37;;;;;;;4.00;2.42;;;12.20;44.10;;;;;;5002326;28;20297;-57
2022/01/29 12:33:16;;;;;;;5.50;2.65;;;12.50;42.40;;;;;;5006905;28;20147;-57
2022/01/29 12:36:05;;;;;;;2.17;1.58;;;12.60;41.40;;;;;;5004645;28;20052;-56
2022/01/29 12:38:41;;;;;;;1.92;1.65;;;12.80;42.10;;;;;;5002306;28;20194;-56
2022/01/29 12:41:25;;;;;;;1.70;1.40;;;13.00;42.20;;;;;;5002613;28;20040;-56
2022/01/29 12:43:54;;;;;;;1.60;1.50;;;13.20;41.80;;;;;;5002038;28;20535;-56
2022/01/29 12:46:26;;;;;;;1.38;1.20;;;13.30;39.00;;;;;;5007278;28;20613;-57
2022/01/29 12:49:10;;;;;;;1.50;1.10;;;13.40;37.80;;;;;;5002091;28;20261;-56
2022/01/29 12:51:59;;;;;;;0.98;0.82;;;13.50;38.30;;;;;;4997629;28;20991;-56
2022/01/29 12:54:29;;;;;;;1.58;1.00;;;13.80;35.40;;;;;;4998544;28;20090;-56
2022/01/29 12:56:57;;;;;;;0.88;0.80;;;13.80;37.00;;;;;;4986369;28;20419;-56
2022/01/29 12:59:24;;;;;;;1.90;0.70;;;14.00;37.00;;;;;;5002032;28;20450;-57
2022/01/29 13:01:56;;;;;;;1.45;1.10;;;14.10;36.00;;;;;;5006582;28;20307;-56
2022/01/29 13:04:29;;;;;;;1.40;1.30;;;14.30;35.30;;;;;;5005385;28;20297;-57
2022/01/29 13:07:03;;;;;;;2.00;0.90;;;14.50;35.70;;;;;;5005687;28;20228;-57
2022/01/29 13:09:34;;;;;;;1.10;1.00;;;14.70;35.40;;;;;;5002083;28;20137;-57
2022/01/29 13:12:07;;;;;;;1.50;0.98;;;14.80;35.30;;;;;;5005451;28;20356;-56
2022/01/29 13:14:35;;;;;;;2.17;1.38;;;14.80;34.90;;;;;;5001937;28;20059;-57